Time;durP1;ratioP1;P1;durP2;ratioP2;P2;SDS_P1;SDS_P2;PMS_P1;PMS_P2;Temp;Humidity;BMP_temperature;BMP_pressure;BME280_temperature;BME280_humidity;BME280_pressure;Samples;Min_cycle;Max_cycle;Signal;HPM_P1;HPM_P2
2022/09/25 00:00:45;;;;;;;5.75;1.77;;;10.00;99.90;;;;;;4985048;28;20057;-80
2022/09/25 00:03:12;;;;;;;5.15;1.70;;;10.00;99.90;;;;;;5008301;28;20042;-80
2022/09/25 00:05:40;;;;;;;5.70;1.85;;;9.90;99.90;;;;;;4966950;28;20030;-81
2022/09/25 00:08:06;;;;;;;4.78;2.08;;;9.90;99.90;;;;;;4982747;28;20077;-80
2022/09/25 00:10:32;;;;;;;3.15;1.73;;;9.90;99.90;;;;;;4963443;28;20030;-81
2022/09/25 00:12:58;;;;;;;7.30;1.60;;;9.90;99.90;;;;;;4961401;28;20035;-81
2022/09/25 00:15:25;;;;;;;4.90;1.92;;;10.00;99.90;;;;;;4949133;28;20123;-80
2022/09/25 00:17:50;;;;;;;5.97;1.77;;;10.00;99.90;;;;;;4992408;28;20042;-81
2022/09/25 00:20:19;;;;;;;7.55;1.77;;;10.00;99.90;;;;;;4973937;28;20050;-80
2022/09/25 00:22:45;;;;;;;3.10;1.20;;;9.90;99.90;;;;;;4984581;28;20047;-81
2022/09/25 00:25:14;;;;;;;4.82;1.52;;;9.90;99.90;;;;;;4967104;28;20034;-80
2022/09/25 00:27:41;;;;;;;5.43;1.58;;;9.90;99.90;;;;;;4984360;28;20109;-80
2022/09/25 00:30:09;;;;;;;4.70;1.60;;;9.90;99.90;;;;;;4967837;28;20324;-80
2022/09/25 00:32:35;;;;;;;4.75;1.52;;;9.90;99.90;;;;;;5001062;28;20068;-80
2022/09/25 00:35:01;;;;;;;3.58;1.33;;;9.80;99.90;;;;;;4982821;28;20046;-80
2022/09/25 00:37:27;;;;;;;5.57;1.45;;;9.80;99.90;;;;;;4975314;28;20054;-81
2022/09/25 00:39:54;;;;;;;4.72;1.70;;;9.80;99.90;;;;;;4974945;28;20038;-80
2022/09/25 00:42:22;;;;;;;3.58;1.55;;;9.80;99.90;;;;;;5001746;28;20061;-80
2022/09/25 00:44:59;;;;;;;4.03;1.63;;;9.80;99.90;;;;;;5005800;23;20423;-61
2022/09/25 00:47:25;;;;;;;3.60;1.60;;;9.70;99.90;;;;;;5032585;28;20112;-59
2022/09/25 00:49:53;;;;;;;6.65;2.00;;;9.70;99.90;;;;;;5030840;28;20132;-61
2022/09/25 00:52:21;;;;;;;6.10;1.63;;;9.70;99.90;;;;;;5030783;28;20045;-58
2022/09/25 00:54:52;;;;;;;5.45;1.60;;;9.60;99.90;;;;;;5032469;28;20168;-61
2022/09/25 00:57:20;;;;;;;4.72;1.42;;;9.60;99.90;;;;;;5032570;28;20429;-61
2022/09/25 00:59:51;;;;;;;4.60;1.50;;;9.60;99.90;;;;;;5030629;28;20053;-61
2022/09/25 01:02:24;;;;;;;3.30;1.60;;;9.60;99.90;;;;;;5030748;28;20088;-61
2022/09/25 01:04:50;;;;;;;5.77;1.70;;;9.60;99.90;;;;;;5032155;28;20076;-61
2022/09/25 01:07:17;;;;;;;4.07;1.60;;;9.60;99.90;;;;;;5031173;28;20290;-61
2022/09/25 01:09:44;;;;;;;4.90;1.70;;;9.50;99.90;;;;;;5030860;28;20455;-60
2022/09/25 01:12:10;;;;;;;5.47;1.50;;;9.50;99.90;;;;;;5031919;28;20141;-62
2022/09/25 01:14:37;;;;;;;4.18;1.90;;;9.50;99.90;;;;;;5014000;28;20042;-63
2022/09/25 01:17:28;;;;;;;6.10;1.88;;;9.50;99.90;;;;;;5014076;28;20045;-61
2022/09/25 01:20:13;;;;;;;6.35;1.73;;;9.50;99.90;;;;;;5021494;28;20124;-61
2022/09/25 01:23:19;;;;;;;4.43;1.60;;;9.50;99.90;;;;;;5030548;28;20570;-61
2022/09/25 01:26:03;;;;;;;5.90;2.28;;;9.50;99.90;;;;;;5031927;28;20041;-61
2022/09/25 01:28:34;;;;;;;7.00;1.92;;;9.50;99.90;;;;;;5031867;28;20476;-60
2022/09/25 01:31:12;;;;;;;3.85;1.45;;;9.60;99.90;;;;;;5030017;28;20110;-60
2022/09/25 01:33:45;;;;;;;4.75;1.50;;;9.60;99.90;;;;;;5014019;28;20045;-60
2022/09/25 01:36:25;;;;;;;8.68;1.88;;;9.60;99.90;;;;;;5030068;28;20038;-61
2022/09/25 01:39:32;;;;;;;5.57;2.28;;;9.60;99.90;;;;;;5030103;28;20073;-59
2022/09/25 01:42:29;;;;;;;4.78;1.60;;;9.60;99.90;;;;;;5029827;28;20057;-61
2022/09/25 01:45:05;;;;;;;3.22;2.05;;;9.60;99.90;;;;;;5021000;28;20079;-61
2022/09/25 01:47:38;;;;;;;6.15;2.25;;;9.20;99.90;;;;;;5030017;28;20080;-61
2022/09/25 01:50:13;;;;;;;5.50;2.15;;;9.60;99.90;;;;;;5029623;28;20049;-61
2022/09/25 01:52:45;;;;;;;10.68;2.50;;;9.70;99.90;;;;;;5031040;28;20046;-60
2022/09/25 01:55:17;;;;;;;7.38;3.00;;;9.80;99.90;;;;;;5031297;28;20079;-61
2022/09/25 01:57:53;;;;;;;8.75;2.35;;;10.00;99.90;;;;;;5029774;28;20053;-61
2022/09/25 02:00:21;;;;;;;6.60;2.67;;;10.10;99.90;;;;;;5029716;28;20055;-59
2022/09/25 02:03:00;;;;;;;6.82;2.80;;;10.10;99.90;;;;;;5028471;28;20104;-60
2022/09/25 02:05:36;;;;;;;5.90;2.40;;;10.10;99.90;;;;;;5013002;28;20041;-60
2022/09/25 02:08:07;;;;;;;4.15;1.88;;;10.10;99.90;;;;;;5030983;28;20492;-60
2022/09/25 02:10:55;;;;;;;10.13;2.55;;;10.10;99.90;;;;;;5030874;28;20072;-61
2022/09/25 02:13:24;;;;;;;9.02;2.10;;;10.10;99.90;;;;;;5030537;28;20085;-61
2022/09/25 02:16:04;;;;;;;7.38;2.40;;;10.10;99.90;;;;;;5029235;28;20049;-60
2022/09/25 02:21:50;;;;;;;7.78;2.45;;;10.00;99.90;;;;;;5029332;28;20053;-61
2022/09/25 02:24:28;;;;;;;5.68;2.17;;;10.00;99.90;;;;;;5030811;28;20053;-61
2022/09/25 02:26:55;;;;;;;5.47;1.85;;;9.90;99.90;;;;;;5029381;28;20420;-62
2022/09/25 02:29:22;;;;;;;6.30;2.25;;;9.90;99.90;;;;;;5030557;28;20041;-60
2022/09/25 02:32:04;;;;;;;4.72;1.52;;;9.80;99.90;;;;;;5029520;28;20037;-61
2022/09/25 02:34:31;;;;;;;5.72;1.80;;;9.90;99.90;;;;;;5029201;28;20095;-61
2022/09/25 02:36:58;;;;;;;8.35;1.92;;;9.80;99.90;;;;;;5029483;28;20041;-61
2022/09/25 02:39:27;;;;;;;10.32;2.42;;;9.80;99.90;;;;;;5030077;28;20072;-60
2022/09/25 02:42:02;;;;;;;6.63;1.85;;;9.80;99.90;;;;;;5012614;28;20051;-60
2022/09/25 02:44:36;;;;;;;4.32;1.63;;;9.70;99.90;;;;;;5028730;28;20495;-61
2022/09/25 02:47:25;;;;;;;5.32;1.90;;;9.70;99.90;;;;;;5029229;28;20051;-59
2022/09/25 02:50:11;;;;;;;4.20;1.92;;;9.70;99.90;;;;;;5029897;28;20081;-61
2022/09/25 02:53:02;;;;;;;11.50;2.25;;;9.60;99.90;;;;;;5030139;28;20041;-61
2022/09/25 02:55:50;;;;;;;6.05;2.22;;;9.60;99.90;;;;;;5030305;28;20528;-61
2022/09/25 02:58:20;;;;;;;5.88;1.88;;;9.60;99.90;;;;;;5030442;28;20130;-61
2022/09/25 03:00:49;;;;;;;6.78;2.08;;;9.50;99.90;;;;;;5012358;28;20407;-59
2022/09/25 03:03:17;;;;;;;7.18;1.95;;;9.50;99.90;;;;;;5030357;28;20041;-61
2022/09/25 03:05:45;;;;;;;4.90;1.52;;;9.50;99.90;;;;;;5029892;28;20041;-60
2022/09/25 03:10:56;;;;;;;9.55;2.35;;;9.50;99.90;;;;;;5028668;28;20050;-59
2022/09/25 03:13:30;;;;;;;12.75;2.88;;;9.60;99.90;;;;;;5030350;28;20052;-60
2022/09/25 03:16:02;;;;;;;9.07;2.47;;;9.70;99.90;;;;;;5033372;28;20484;-60
2022/09/25 03:18:30;;;;;;;8.02;2.20;;;9.90;99.90;;;;;;5032687;28;20045;-60
2022/09/25 03:20:56;;;;;;;8.10;3.15;;;10.00;99.90;;;;;;5033789;28;20049;-60
2022/09/25 03:23:22;;;;;;;6.78;2.38;;;10.00;99.90;;;;;;5033900;28;20072;-60
2022/09/25 03:25:48;;;;;;;5.40;1.48;;;10.10;99.90;;;;;;5016125;28;20037;-61
2022/09/25 03:28:14;;;;;;;5.40;1.70;;;10.20;99.90;;;;;;5033958;28;20127;-60
2022/09/25 03:30:40;;;;;;;6.43;1.38;;;10.30;99.90;;;;;;5033769;28;20037;-59
2022/09/25 03:33:09;;;;;;;6.38;1.40;;;10.50;99.90;;;;;;5032569;28;20041;-61
2022/09/25 03:35:36;;;;;;;4.93;1.17;;;10.60;99.90;;;;;;5033787;28;20049;-61
2022/09/25 03:38:02;;;;;;;7.43;1.10;;;10.60;99.90;;;;;;5033770;28;20115;-60
2022/09/25 03:40:28;;;;;;;5.30;0.95;;;10.60;99.90;;;;;;5033701;28;20073;-61
2022/09/25 03:42:53;;;;;;;5.55;1.20;;;10.70;99.90;;;;;;5033681;28;20516;-60
2022/09/25 03:45:19;;;;;;;6.88;1.73;;;10.70;99.90;;;;;;5031834;28;20088;-60
2022/09/25 03:47:45;;;;;;;6.90;1.20;;;10.80;99.90;;;;;;5032505;28;20042;-61
2022/09/25 03:50:10;;;;;;;5.88;0.95;;;10.80;99.90;;;;;;5033154;28;20056;-59
2022/09/25 03:52:36;;;;;;;2.47;0.82;;;10.70;99.90;;;;;;5033252;28;20038;-61
2022/09/25 03:55:03;;;;;;;3.17;0.80;;;10.80;99.90;;;;;;5015508;28;20059;-60
2022/09/25 03:57:29;;;;;;;3.35;1.20;;;10.70;99.90;;;;;;5033744;28;20045;-60
2022/09/25 04:00:00;;;;;;;4.20;1.20;;;10.70;99.90;;;;;;5031537;28;20333;-61
2022/09/25 04:02:27;;;;;;;3.78;1.10;;;10.70;99.90;;;;;;5033389;28;20076;-61
2022/09/25 04:04:53;;;;;;;4.47;1.08;;;10.70;99.90;;;;;;5033168;28;20033;-59
2022/09/25 04:07:20;;;;;;;6.65;1.25;;;10.70;99.90;;;;;;5031985;28;20511;-60
2022/09/25 04:09:46;;;;;;;7.00;1.27;;;10.60;99.90;;;;;;5032917;28;20485;-59
2022/09/25 04:12:12;;;;;;;3.40;1.13;;;10.60;99.90;;;;;;5031901;28;20052;-60
2022/09/25 04:14:38;;;;;;;3.03;1.13;;;10.60;99.90;;;;;;5032910;28;20064;-60
2022/09/25 04:17:03;;;;;;;2.97;1.20;;;10.60;99.90;;;;;;5031550;28;20045;-60
2022/09/25 04:19:29;;;;;;;4.00;1.10;;;10.50;99.90;;;;;;5014670;28;20103;-59
2022/09/25 04:21:55;;;;;;;5.20;1.70;;;10.50;99.90;;;;;;5032545;28;20046;-59
2022/09/25 04:27:05;;;;;;;;;;;10.40;99.90;;;;;;5032491;28;20276;-58
2022/09/25 04:29:31;;;;;;;3.60;1.10;;;10.40;99.90;;;;;;5031527;28;19916;-60
2022/09/25 04:34:41;;;;;;;5.47;1.65;;;10.40;99.90;;;;;;5030908;28;20045;-59
2022/09/25 04:37:07;;;;;;;5.43;1.35;;;10.40;99.90;;;;;;5032398;28;20030;-58
2022/09/25 04:39:33;;;;;;;3.65;1.52;;;10.40;99.90;;;;;;5032383;28;20038;-61
2022/09/25 04:41:58;;;;;;;3.08;1.08;;;10.40;99.90;;;;;;5032389;28;20041;-61
2022/09/25 04:44:24;;;;;;;6.93;1.75;;;10.50;99.90;;;;;;5032093;28;20041;-59
2022/09/25 04:46:51;;;;;;;6.18;1.83;;;10.50;99.90;;;;;;5032403;28;20038;-61
2022/09/25 04:49:17;;;;;;;4.50;1.70;;;10.60;99.90;;;;;;5030909;28;20053;-61
2022/09/25 04:51:42;;;;;;;7.30;2.17;;;10.60;99.90;;;;;;5031308;28;20045;-61
2022/09/25 04:54:08;;;;;;;5.45;1.48;;;10.70;99.90;;;;;;5030868;28;20049;-60
2022/09/25 04:56:34;;;;;;;4.05;1.60;;;10.70;99.90;;;;;;5030822;28;20132;-60
2022/09/25 04:58:59;;;;;;;5.60;1.50;;;10.70;99.90;;;;;;5014245;28;20450;-60
2022/09/25 05:01:25;;;;;;;13.02;3.33;;;10.80;99.90;;;;;;5032171;28;20060;-60
2022/09/25 05:03:54;;;;;;;7.18;1.92;;;10.80;99.90;;;;;;5030652;28;20188;-58
2022/09/25 05:06:21;;;;;;;6.65;1.75;;;10.80;99.90;;;;;;5032013;28;20488;-60
2022/09/25 05:08:48;;;;;;;5.90;1.55;;;10.80;99.90;;;;;;5032101;28;20122;-60
2022/09/25 05:11:14;;;;;;;8.32;1.75;;;10.80;99.90;;;;;;5032155;28;20041;-62
2022/09/25 05:13:42;;;;;;;6.63;1.50;;;10.80;99.90;;;;;;5030579;28;20053;-59
2022/09/25 05:16:08;;;;;;;5.55;1.38;;;10.70;99.90;;;;;;5014213;28;20073;-61
2022/09/25 05:18:34;;;;;;;6.40;1.58;;;10.70;99.90;;;;;;5031695;28;20280;-59
2022/09/25 05:21:03;;;;;;;5.10;1.63;;;10.70;99.90;;;;;;5031886;28;20060;-61
2022/09/25 05:23:29;;;;;;;8.32;1.80;;;10.70;99.90;;;;;;5031813;28;20075;-61
2022/09/25 05:25:59;;;;;;;7.35;2.38;;;10.70;99.90;;;;;;5030387;28;20043;-59
2022/09/25 05:28:25;;;;;;;4.75;2.17;;;10.60;99.90;;;;;;5031880;28;20538;-62
2022/09/25 05:30:51;;;;;;;9.45;1.73;;;10.60;99.90;;;;;;5029250;28;20045;-59
2022/09/25 05:33:17;;;;;;;7.30;2.05;;;10.70;99.90;;;;;;5031693;28;20439;-62
2022/09/25 05:35:43;;;;;;;4.57;2.63;;;10.70;99.90;;;;;;5013378;28;20045;-62
2022/09/25 05:38:09;;;;;;;6.95;1.95;;;10.70;99.90;;;;;;5030459;28;20580;-61
2022/09/25 05:40:37;;;;;;;4.75;1.67;;;10.70;99.90;;;;;;5031308;28;20128;-59
2022/09/25 05:43:04;;;;;;;5.88;2.03;;;10.80;99.90;;;;;;5030051;28;20042;-58
2022/09/25 05:45:30;;;;;;;4.78;1.73;;;10.80;99.90;;;;;;5030748;28;20037;-61
2022/09/25 05:48:07;;;;;;;5.90;2.40;;;10.80;99.90;;;;;;5030165;28;20099;-60
2022/09/25 05:50:33;;;;;;;2.75;1.20;;;10.80;99.90;;;;;;5030905;28;20370;-60
2022/09/25 05:53:01;;;;;;;5.45;1.70;;;10.90;99.90;;;;;;5031016;28;20044;-61
2022/09/25 05:55:28;;;;;;;4.72;1.58;;;10.80;99.90;;;;;;5029870;28;20523;-61
2022/09/25 05:57:59;;;;;;;4.22;1.30;;;10.80;99.90;;;;;;5030843;28;20072;-62
2022/09/25 06:00:26;;;;;;;8.52;1.80;;;10.90;99.90;;;;;;5030984;28;20041;-59
2022/09/25 06:02:52;;;;;;;2.92;1.20;;;10.90;99.90;;;;;;5029654;28;20523;-61
2022/09/25 06:05:18;;;;;;;6.60;1.85;;;10.90;99.90;;;;;;5029195;28;20042;-59
2022/09/25 06:07:44;;;;;;;1.98;1.45;;;10.80;99.90;;;;;;5030949;28;20428;-61
2022/09/25 06:10:10;;;;;;;5.90;1.67;;;10.80;99.90;;;;;;5030791;28;20046;-61
2022/09/25 06:12:35;;;;;;;6.28;1.60;;;10.80;99.90;;;;;;5030695;28;20049;-60
2022/09/25 06:15:01;;;;;;;3.28;1.23;;;10.80;99.90;;;;;;5030803;28;20132;-61
2022/09/25 06:17:27;;;;;;;5.03;1.77;;;10.70;99.90;;;;;;5029460;28;20067;-62
2022/09/25 06:19:53;;;;;;;2.75;1.27;;;10.70;99.90;;;;;;5030434;28;20065;-62
2022/09/25 06:22:19;;;;;;;4.95;1.63;;;10.70;99.90;;;;;;5029424;28;20057;-61
2022/09/25 06:24:44;;;;;;;7.18;1.67;;;10.70;99.90;;;;;;5030811;28;20044;-62
2022/09/25 06:27:10;;;;;;;8.10;2.17;;;10.80;99.90;;;;;;5029302;28;20508;-59
2022/09/25 06:29:36;;;;;;;9.23;2.08;;;10.80;99.90;;;;;;5028758;28;20073;-62
2022/09/25 06:32:02;;;;;;;6.38;2.20;;;10.80;99.90;;;;;;5031034;28;20041;-61
2022/09/25 06:34:28;;;;;;;5.18;1.40;;;10.90;99.90;;;;;;5029003;28;20047;-62
2022/09/25 06:36:54;;;;;;;6.20;1.70;;;11.00;99.90;;;;;;4996218;28;20037;-62
2022/09/25 06:39:19;;;;;;;5.40;1.98;;;11.00;99.90;;;;;;5029125;28;20057;-62
2022/09/25 06:41:45;;;;;;;6.13;2.53;;;11.10;99.90;;;;;;5028711;28;20135;-65
2022/09/25 06:44:11;;;;;;;6.47;2.13;;;11.20;99.90;;;;;;5038982;28;20151;-61
2022/09/25 06:46:37;;;;;;;5.30;2.15;;;11.30;99.90;;;;;;5056892;22;20053;-61
2022/09/25 06:49:03;;;;;;;5.10;1.95;;;11.30;99.90;;;;;;5039487;28;20461;-61
2022/09/25 06:51:33;;;;;;;7.25;1.90;;;11.40;99.90;;;;;;5010083;28;20046;-60
2022/09/25 06:53:59;;;;;;;6.13;2.10;;;11.40;99.90;;;;;;4994172;28;20053;-61
2022/09/25 06:56:25;;;;;;;3.85;1.85;;;11.50;99.90;;;;;;5007668;28;20041;-61
2022/09/25 06:58:51;;;;;;;9.25;2.00;;;11.50;99.90;;;;;;5022284;28;20504;-62
2022/09/25 07:01:17;;;;;;;9.27;2.17;;;11.60;99.90;;;;;;5020623;28;20037;-62
2022/09/25 07:03:46;;;;;;;5.82;1.85;;;11.70;99.90;;;;;;5023733;28;20472;-60
2022/09/25 07:06:14;;;;;;;4.32;1.70;;;11.80;99.90;;;;;;5010753;28;20033;-61
2022/09/25 07:08:42;;;;;;;5.63;1.85;;;11.90;99.90;;;;;;5011356;28;20041;-61
2022/09/25 07:11:12;;;;;;;6.57;1.80;;;12.00;99.90;;;;;;5007701;28;20209;-62
2022/09/25 07:13:39;;;;;;;5.78;1.75;;;12.00;99.90;;;;;;5016230;28;20139;-60
2022/09/25 07:16:09;;;;;;;9.40;2.60;;;12.10;99.90;;;;;;5008995;28;20042;-61
2022/09/25 07:18:34;;;;;;;5.13;2.15;;;12.20;99.90;;;;;;5007309;28;20084;-62
2022/09/25 07:21:03;;;;;;;8.13;1.67;;;12.30;99.90;;;;;;5003803;28;20488;-61
2022/09/25 07:23:30;;;;;;;7.40;1.75;;;12.40;99.90;;;;;;5007889;28;20053;-62
2022/09/25 07:26:02;;;;;;;7.05;1.80;;;12.50;99.90;;;;;;4994605;28;20472;-62
2022/09/25 07:28:28;;;;;;;6.45;1.80;;;12.60;99.90;;;;;;5008350;28;20068;-61
2022/09/25 07:30:54;;;;;;;5.38;1.90;;;12.60;99.90;;;;;;5010403;28;20083;-60
2022/09/25 07:33:23;;;;;;;6.40;1.80;;;12.70;99.90;;;;;;5003282;28;20159;-62
2022/09/25 07:35:51;;;;;;;4.97;1.58;;;12.80;99.90;;;;;;5001318;28;20508;-61
2022/09/25 07:38:17;;;;;;;5.55;1.77;;;12.90;99.90;;;;;;4992124;28;20073;-61
2022/09/25 07:40:43;;;;;;;6.15;1.60;;;13.00;99.90;;;;;;4992014;28;20041;-60
2022/09/25 07:43:09;;;;;;;4.85;1.63;;;13.00;99.90;;;;;;5004519;28;20064;-61
2022/09/25 07:45:35;;;;;;;3.58;1.15;;;13.20;99.90;;;;;;5002759;28;20045;-60
2022/09/25 07:48:02;;;;;;;7.00;1.80;;;13.30;99.90;;;;;;5015529;28;20057;-61
2022/09/25 07:50:30;;;;;;;6.45;1.88;;;13.30;99.90;;;;;;5005442;28;20037;-60
2022/09/25 07:52:57;;;;;;;7.85;1.80;;;13.20;99.90;;;;;;5005775;28;20064;-62
2022/09/25 07:55:23;;;;;;;8.57;1.73;;;13.20;99.90;;;;;;4995666;28;20076;-62
2022/09/25 07:57:50;;;;;;;8.88;2.13;;;13.30;99.90;;;;;;4982385;28;20568;-62
2022/09/25 08:00:17;;;;;;;6.22;1.88;;;13.40;99.90;;;;;;4992750;28;20067;-61
2022/09/25 08:02:42;;;;;;;7.60;2.05;;;13.50;99.90;;;;;;5015393;28;20488;-61
2022/09/25 08:05:10;;;;;;;8.02;2.00;;;13.60;99.90;;;;;;5018790;28;20120;-62
2022/09/25 08:07:36;;;;;;;10.00;1.67;;;13.80;99.90;;;;;;5016911;28;20083;-61
2022/09/25 08:10:01;;;;;;;10.02;1.63;;;13.80;99.90;;;;;;5020758;28;20025;-62
2022/09/25 08:12:27;;;;;;;4.40;2.58;;;13.90;99.90;;;;;;5017554;28;20037;-61
2022/09/25 08:14:53;;;;;;;11.13;1.50;;;14.00;99.90;;;;;;5017687;28;20139;-62
2022/09/25 08:17:21;;;;;;;6.85;2.47;;;14.00;99.90;;;;;;5009636;28;20033;-62
2022/09/25 08:19:47;;;;;;;5.38;1.58;;;14.10;99.90;;;;;;5017707;28;20069;-61
2022/09/25 08:22:13;;;;;;;6.15;1.52;;;14.10;99.90;;;;;;5014720;28;20050;-62
2022/09/25 08:24:38;;;;;;;4.90;1.27;;;14.00;99.90;;;;;;5017305;28;20033;-60
2022/09/25 08:27:06;;;;;;;4.18;1.15;;;13.90;99.90;;;;;;5016810;28;20108;-62
2022/09/25 08:29:32;;;;;;;2.15;1.23;;;13.80;99.90;;;;;;5017200;28;20045;-62
2022/09/25 08:31:58;;;;;;;5.68;1.38;;;13.70;99.90;;;;;;5014139;28;20685;-62
2022/09/25 08:34:24;;;;;;;3.83;1.17;;;13.70;99.90;;;;;;5011906;28;20342;-61
2022/09/25 08:36:49;;;;;;;3.22;1.02;;;13.60;99.90;;;;;;5020781;28;20495;-61
2022/09/25 08:39:16;;;;;;;2.55;0.90;;;13.90;99.90;;;;;;5017789;28;20041;-61
2022/09/25 08:41:52;;;;;;;1.38;0.80;;;13.60;99.90;;;;;;5017498;28;20038;-61
2022/09/25 08:44:35;;;;;;;2.75;0.60;;;13.50;99.90;;;;;;5020424;28;20064;-60
2022/09/25 08:50:17;;;;;;;3.50;1.10;;;13.40;99.90;;;;;;5019926;28;20060;-61
2022/09/25 08:52:47;;;;;;;5.43;1.38;;;13.40;99.90;;;;;;5007112;28;20160;-62
2022/09/25 08:55:20;;;;;;;4.32;1.23;;;13.40;99.90;;;;;;5018104;28;20041;-61
2022/09/25 08:57:46;;;;;;;4.72;1.30;;;13.40;99.90;;;;;;5007386;28;20041;-61
2022/09/25 09:00:19;;;;;;;10.07;1.55;;;13.50;99.90;;;;;;5023151;28;20048;-61
2022/09/25 09:02:57;;;;;;;8.88;1.10;;;13.60;99.90;;;;;;5023610;28;20048;-61
2022/09/25 09:05:36;;;;;;;6.65;1.20;;;13.60;99.90;;;;;;5018481;28;20042;-61
2022/09/25 09:08:09;;;;;;;7.78;1.52;;;13.70;99.90;;;;;;5018102;28;20042;-60
2022/09/25 09:10:56;;;;;;;3.05;1.00;;;13.80;99.90;;;;;;5010997;28;20322;-62
2022/09/25 09:13:40;;;;;;;3.85;0.93;;;13.80;99.90;;;;;;5003362;28;20053;-60
2022/09/25 09:16:06;;;;;;;5.72;1.02;;;13.90;99.90;;;;;;5007302;28;20201;-61
2022/09/25 09:18:38;;;;;;;5.15;1.30;;;14.00;99.90;;;;;;5013860;28;20049;-62
2022/09/25 09:21:12;;;;;;;4.25;0.98;;;14.00;99.90;;;;;;5016669;28;20068;-62
2022/09/25 09:23:49;;;;;;;;;;;14.30;99.90;;;;;;5012542;28;20099;-62
2022/09/25 09:26:27;;;;;;;4.38;0.85;;;14.50;99.90;;;;;;5017027;28;19917;-61
2022/09/25 09:29:17;;;;;;;2.38;0.70;;;14.70;99.90;;;;;;5016965;28;20037;-62
2022/09/25 09:32:10;;;;;;;3.17;0.73;;;15.00;99.90;;;;;;5016088;28;20508;-62
2022/09/25 09:34:57;;;;;;;4.95;0.80;;;15.10;99.90;;;;;;5007128;28;20050;-60
2022/09/25 09:37:48;;;;;;;1.83;0.40;;;15.00;99.90;;;;;;5014214;28;20128;-61
2022/09/25 09:40:53;;;;;;;2.28;0.47;;;15.20;99.90;;;;;;5012698;28;20048;-62
2022/09/25 09:43:22;;;;;;;;;;;15.30;99.90;;;;;;5011898;28;20195;-62
2022/09/25 09:46:03;;;;;;;4.30;0.60;;;15.50;99.90;;;;;;5014606;28;20016;-62
2022/09/25 09:48:42;;;;;;;3.30;0.80;;;15.70;99.90;;;;;;5008225;28;20792;-62
2022/09/25 09:51:14;;;;;;;3.42;1.10;;;15.90;99.90;;;;;;5018458;28;20042;-62
2022/09/25 09:54:08;;;;;;;1.50;0.50;;;16.00;99.90;;;;;;5021507;28;20048;-61
2022/09/25 09:56:35;;;;;;;2.85;0.50;;;16.10;99.90;;;;;;5013663;28;20041;-61
2022/09/25 09:59:16;;;;;;;2.35;0.60;;;16.30;99.90;;;;;;5017763;28;20056;-61
2022/09/25 10:01:44;;;;;;;2.58;0.75;;;16.50;99.90;;;;;;5013856;28;20053;-62
2022/09/25 10:04:22;;;;;;;2.28;0.90;;;16.70;99.90;;;;;;5017566;28;20085;-62
2022/09/25 10:07:11;;;;;;;1.88;0.60;;;16.80;99.90;;;;;;5020878;28;20393;-62
2022/09/25 10:09:37;;;;;;;5.38;0.70;;;16.90;99.90;;;;;;5016720;28;20038;-59
2022/09/25 10:12:11;;;;;;;2.72;0.77;;;16.80;99.90;;;;;;5009300;28;20037;-61
2022/09/25 10:14:41;;;;;;;2.67;0.80;;;16.90;99.90;;;;;;5016492;28;21211;-62
2022/09/25 10:17:10;;;;;;;3.22;0.75;;;17.10;99.90;;;;;;5014197;28;20057;-61
2022/09/25 10:19:53;;;;;;;2.55;0.77;;;17.10;99.90;;;;;;5016727;28;20033;-64
2022/09/25 10:22:24;;;;;;;2.17;0.77;;;16.90;99.90;;;;;;5019129;28;20287;-62
2022/09/25 10:25:01;;;;;;;3.47;0.80;;;16.60;99.90;;;;;;5018811;28;20447;-61
2022/09/25 10:27:28;;;;;;;3.10;0.60;;;16.40;99.90;;;;;;5012714;28;20049;-61
2022/09/25 10:30:09;;;;;;;4.53;1.00;;;16.20;99.90;;;;;;5014927;28;20033;-62
2022/09/25 10:32:59;;;;;;;7.63;0.98;;;16.10;99.90;;;;;;5012998;28;20073;-62
2022/09/25 10:35:40;;;;;;;8.13;1.10;;;15.90;99.90;;;;;;5015630;28;20051;-61
2022/09/25 10:38:26;;;;;;;3.53;1.17;;;15.60;99.90;;;;;;5009596;28;20045;-61
2022/09/25 10:41:09;;;;;;;4.20;0.73;;;15.60;99.90;;;;;;5007276;28;20057;-61
2022/09/25 10:43:48;;;;;;;2.60;0.88;;;15.50;99.90;;;;;;5016139;28;20116;-62
2022/09/25 10:50:09;;;;;;;3.22;0.80;;;15.50;99.90;;;;;;5009420;28;20246;-62
2022/09/25 10:52:06;;;;;;;5.47;1.08;;;15.50;99.90;;;;;;5011075;28;19918;-61
2022/09/25 10:54:34;;;;;;;5.07;0.95;;;15.50;99.90;;;;;;5018617;28;20042;-61
2022/09/25 10:57:01;;;;;;;3.35;0.88;;;15.60;99.90;;;;;;5017448;28;20041;-62
2022/09/25 10:59:28;;;;;;;4.78;1.10;;;15.60;99.90;;;;;;5017215;28;20042;-62
2022/09/25 11:01:54;;;;;;;4.47;0.93;;;15.70;99.90;;;;;;5017949;28;20029;-62
2022/09/25 11:04:33;;;;;;;4.68;0.80;;;15.70;99.90;;;;;;5016220;28;20049;-62
2022/09/25 11:07:03;;;;;;;6.80;1.20;;;15.80;99.90;;;;;;5011332;28;20032;-61
2022/09/25 11:09:31;;;;;;;4.13;1.00;;;15.70;99.90;;;;;;5014471;28;20120;-61
2022/09/25 11:12:11;;;;;;;5.65;1.05;;;15.60;99.90;;;;;;5019318;28;20053;-61
2022/09/25 11:14:37;;;;;;;6.18;0.90;;;15.60;99.90;;;;;;5015975;28;20117;-62
2022/09/25 11:17:24;;;;;;;4.20;1.00;;;15.50;99.90;;;;;;5005163;28;20044;-61
2022/09/25 11:20:21;;;;;;;3.90;0.82;;;15.40;99.90;;;;;;5013950;28;20042;-60
2022/09/25 11:23:09;;;;;;;3.55;1.00;;;15.40;99.90;;;;;;5018011;28;20048;-62
2022/09/25 11:25:47;;;;;;;6.53;0.85;;;15.40;99.90;;;;;;5017625;28;20121;-61
2022/09/25 11:28:36;;;;;;;4.28;1.10;;;15.40;99.90;;;;;;5016921;28;20037;-60
2022/09/25 11:31:12;;;;;;;3.47;0.75;;;15.50;99.90;;;;;;5013707;28;20041;-61
2022/09/25 11:34:16;;;;;;;4.30;1.00;;;15.60;99.90;;;;;;5013854;28;20048;-62
2022/09/25 11:37:14;;;;;;;2.72;0.73;;;15.70;99.90;;;;;;5014282;28;20128;-62
2022/09/25 11:42:46;;;;;;;7.03;0.95;;;15.80;99.90;;;;;;5015996;28;20048;-62
2022/09/25 11:45:40;;;;;;;5.70;1.00;;;15.90;99.90;;;;;;5020155;28;20056;-62
2022/09/25 11:48:15;;;;;;;5.55;0.80;;;16.00;99.90;;;;;;5023217;28;20033;-60
2022/09/25 11:51:14;;;;;;;2.47;0.80;;;16.00;99.90;;;;;;5019244;28;20411;-61
2022/09/25 11:53:40;;;;;;;4.13;1.35;;;16.00;99.90;;;;;;5019273;28;20041;-62
2022/09/25 11:56:37;;;;;;;5.20;1.33;;;16.10;99.90;;;;;;5014177;28;20535;-61
2022/09/25 11:59:40;;;;;;;4.30;0.88;;;16.10;99.90;;;;;;5016375;28;20057;-62
2022/09/25 12:02:39;;;;;;;5.20;0.80;;;16.10;99.90;;;;;;5017683;28;20041;-62
2022/09/25 12:05:17;;;;;;;4.13;0.68;;;16.10;99.90;;;;;;5017740;28;20507;-61
2022/09/25 12:08:05;;;;;;;4.82;0.60;;;16.10;99.90;;;;;;5015715;28;20168;-62
2022/09/25 12:10:48;;;;;;;3.33;0.60;;;16.20;99.80;;;;;;5020455;28;20345;-60
2022/09/25 12:13:32;;;;;;;4.68;0.60;;;16.20;99.00;;;;;;4999032;28;20041;-61
2022/09/25 12:16:14;;;;;;;1.85;0.50;;;16.20;99.00;;;;;;5017730;28;20119;-62
2022/09/25 12:18:46;;;;;;;1.33;0.40;;;16.30;98.50;;;;;;5014262;28;20041;-61
2022/09/25 12:21:53;;;;;;;4.03;0.98;;;16.30;97.90;;;;;;5028237;28;20066;-62
2022/09/25 12:24:51;;;;;;;4.70;0.93;;;16.30;97.90;;;;;;5011708;28;20261;-61
2022/09/25 12:27:40;;;;;;;2.85;1.00;;;16.40;98.00;;;;;;5017677;28;20030;-61
2022/09/25 12:30:17;;;;;;;3.15;0.70;;;16.60;98.30;;;;;;5011734;28;20029;-61
2022/09/25 12:33:15;;;;;;;3.28;0.77;;;16.80;98.30;;;;;;5017889;28;20048;-62
2022/09/25 12:35:56;;;;;;;5.55;1.67;;;17.00;97.60;;;;;;5017713;28;20119;-63
2022/09/25 12:38:54;;;;;;;2.35;0.40;;;17.40;97.90;;;;;;5019642;28;20049;-60
2022/09/25 12:41:42;;;;;;;3.25;0.75;;;17.80;96.90;;;;;;5009501;28;20077;-60
2022/09/25 12:44:22;;;;;;;3.75;0.65;;;18.00;96.40;;;;;;5015383;28;20127;-62
2022/09/25 12:47:01;;;;;;;3.33;0.70;;;18.10;96.00;;;;;;5072249;22;20222;-80
2022/09/25 12:49:57;;;;;;;3.97;0.57;;;18.10;94.80;;;;;;5047282;28;20076;-80
2022/09/25 12:52:34;;;;;;;2.65;0.65;;;18.30;94.60;;;;;;5047316;28;20048;-81
2022/09/25 12:55:06;;;;;;;1.35;0.60;;;18.60;94.30;;;;;;5031684;28;20098;-81
2022/09/25 12:58:21;;;;;;;3.30;0.70;;;18.60;93.80;;;;;;5033023;28;20041;-80
2022/09/25 13:00:56;;;;;;;1.65;0.60;;;18.80;93.70;;;;;;4995778;28;20704;-80
2022/09/25 13:03:37;;;;;;;3.08;1.05;;;19.10;93.60;;;;;;5028398;28;20120;-81
2022/09/25 13:06:23;;;;;;;2.75;0.45;;;19.20;93.40;;;;;;5009992;28;20117;-80
2022/09/25 13:08:59;;;;;;;1.92;0.77;;;19.40;93.30;;;;;;5019140;28;20033;-80
2022/09/25 13:11:44;;;;;;;4.70;0.80;;;19.30;91.90;;;;;;5029023;28;20044;-81
2022/09/25 13:14:26;;;;;;;2.47;0.70;;;19.10;91.50;;;;;;5030279;28;20360;-81
2022/09/25 13:16:52;;;;;;;5.70;1.05;;;18.90;92.40;;;;;;5026701;28;20524;-80
2022/09/25 13:19:27;;;;;;;2.83;0.80;;;18.90;93.10;;;;;;4997777;28;20041;-81
2022/09/25 13:22:23;;;;;;;2.97;0.93;;;18.90;92.90;;;;;;5011332;28;20041;-79
2022/09/25 13:25:11;;;;;;;2.28;0.75;;;18.70;91.50;;;;;;5027717;28;20063;-81
2022/09/25 13:27:44;;;;;;;3.97;0.80;;;18.60;92.30;;;;;;5007843;28;20108;-81
2022/09/25 13:30:27;;;;;;;3.53;1.05;;;18.20;92.60;;;;;;5027738;28;20120;-80
2022/09/25 13:32:58;;;;;;;3.22;0.90;;;17.80;93.10;;;;;;5009972;28;20087;-81
2022/09/25 13:35:25;;;;;;;4.75;1.17;;;17.50;93.80;;;;;;5010014;28;20100;-81
2022/09/25 13:37:54;;;;;;;3.35;0.77;;;17.20;94.20;;;;;;5026838;28;20051;-81
2022/09/25 13:40:44;;;;;;;3.70;1.10;;;17.00;94.50;;;;;;5011055;28;20049;-80